Hauptseite
METAR-TAF:

METAR-TAF

Flughäfen :

Neuburg, Deutschland

Fliegerhorst Neuburg

Breite: 48-43N, Länge: 011-13E, Höhe: 380 m

Beobachtung

Neuester Wetterbericht von vor 49 Minuten, um 18:20 UTC
Wind 7 kt aus Südwest
Temperatur 7°C
Luftfeuchtigkeit 76%
Luftdruck 1015 hPa
Sichtweite 10 km oder mehr
Leicht bewölkt in der Höhe von 7000 ft
Durchbrochene Bewölkung in der Höhe von 17000 ft

METAR: ETSN 211820Z 23007KT 9999 FEW070 BKN170 07/03 Q1015 BLU BLU TEMPO BLU+

Zeit: 20:09 (19:09 UTC)

Prognose

Neuester Wetterbericht von vor 1 Stunde und 44 Minuten, um 17:25 UTC
Gültige Prognose vom 21 um 18 UTC bis 22 um 03 UTC
Wind 5 kt aus Südwest
Sichtweite 10 km oder mehr
Aufgelockert bewölkt in der Höhe von 6000 ft
Durchbrochene Bewölkung in der Höhe von 18000 ft

TAF: ETSN 211725Z 2118/2203 22005KT 9999 NSW SCT060 BKN180 BY ETGL

Wetterbeobachtungen und Prognosen von mehr als 4000 Flughäfen (METAR und TAF Bericht).

Die verfügbaren Stationen werden durch gelbe und rote Markierungen auf der Karte dargestellt.

Führen Sie die Maus auf sie, um den Namen der Station zu sehen.

Darauf klicken, um die Beobachtung von Wetterbeobachtungen und Prognosen zu sehen.

Um die Karte zu ändern : klicken Sie auf den grünen Tasten mit einem schwarzen Kreuz Zum Vergrößern, auf den grünen Button mit einem Gedankenstrich zu verkleinern, oder auf die grünen Pfeile für benachbarte Karten.


METAR-TAF: